Estación Meteorológica Peña el Pijo (Robertgarden) [ 11/16/19 02:51:01 CET ]

Fecha Hora Presion(HPa) Temp (°C) Humedad % Rocio (°C) Viento ( m/s) Direccion Lluvia 1Hora(mm) Lluvia 24H(mm) LLuvia Total(mm)
2019-Jul-25 01:01:53 1011.700 19.6 48 8.3         344.18
2019-Jul-25 02:01:32 1011.700 17.8 53 8.0         344.18
2019-Jul-25 03:01:58 1011.300 16.6 54 7.2         344.18
2019-Jul-25 04:01:42 1010.900 15.6 55 6.6         344.18
2019-Jul-25 05:03:12 1011.000 14.2 60 35.6         344.18
2019-Jul-25 06:01:36 1010.700 13.5 62 6.3         344.18
2019-Jul-25 07:01:51 1010.800 13.2 63 6.3         344.18
2019-Jul-25 08:01:58 1011.000 14.1 64 7.4         344.18
2019-Jul-25 09:01:36 1011.000 20.8 51 10.3         344.18
2019-Jul-25 10:01:47 1010.800 26.6 39 11.5         344.18
2019-Jul-25 11:01:48 1010.500 31.8 28 10.9         344.18
2019-Jul-25 12:01:45 1010.300 31.6 25 9.0         344.18
2019-Jul-25 13:01:48 1010.500 32.4 22 7.8         344.18
2019-Jul-25 14:01:52 1010.100 32.9 21 7.6 1.0 WSW     344.18
2019-Jul-25 15:01:50 1009.900 34.6 20 8.4 2.5 SW     344.18
2019-Jul-25 16:01:58 1009.100 35.8 19 8.4 0.8 WSW     344.18
2019-Jul-25 17:01:46 1008.700 34.5 20 8.3 3.9 W     344.18
2019-Jul-25 18:01:56 1008.300 33.2 24 9.7         344.18
2019-Jul-25 19:01:49 1008.400 32.3 24 8.9         344.18
2019-Jul-25 20:02:05 1008.600 30.2 28 9.6         344.18
2019-Jul-25 21:01:53 1009.100 28.5 30 9.2         344.18
2019-Jul-25 22:02:06 1009.500 25.8 35 9.1         344.18
2019-Jul-25 23:01:53 1010.000 22.6 41 8.7         344.18

Temperatura Máxima:35°    Temperatura Mínima:13°
Presión Máxima:1011.700 Hpa    Presión Mínima:1008.300 Hpa


Volver